createdAt,value
2022-11-12T00:01:52.667Z,83.85
2022-11-12T00:04:38.510Z,84.02
2022-11-12T00:07:24.103Z,84.46
2022-11-12T00:10:09.824Z,86.60
2022-11-12T00:12:55.930Z,85.67
2022-11-12T00:15:41.902Z,84.42
2022-11-12T00:18:27.887Z,85.42
2022-11-12T00:21:14.176Z,84.61
2022-11-12T00:23:59.900Z,84.91
2022-11-12T00:26:45.848Z,84.45
2022-11-12T00:29:31.613Z,85.40
2022-11-12T00:32:17.913Z,86.37
2022-11-12T00:35:06.041Z,85.81
2022-11-12T00:37:57.014Z,85.02
2022-11-12T00:40:43.141Z,85.53
2022-11-12T00:43:28.657Z,86.36
2022-11-12T00:46:14.869Z,87.97
2022-11-12T00:49:01.024Z,88.10
2022-11-12T00:51:47.274Z,86.86
2022-11-12T00:54:33.171Z,87.54
2022-11-12T00:57:18.877Z,86.61
2022-11-12T01:00:08.262Z,86.20
2022-11-12T01:02:54.258Z,86.39
2022-11-12T01:05:39.885Z,86.06
2022-11-12T01:08:29.896Z,85.54
2022-11-12T01:11:25.009Z,86.26
2022-11-12T01:14:12.211Z,86.06
2022-11-12T01:16:57.901Z,86.03
2022-11-12T01:19:43.689Z,86.67
2022-11-12T01:22:29.442Z,84.96
2022-11-12T01:25:15.447Z,85.75
2022-11-12T01:28:01.352Z,86.07
2022-11-12T01:30:47.475Z,87.23
2022-11-12T01:33:32.991Z,87.50
2022-11-12T01:36:19.603Z,86.87
2022-11-12T01:39:06.964Z,87.60
2022-11-12T01:41:52.520Z,87.52
2022-11-12T01:44:41.200Z,89.78
2022-11-12T01:47:29.668Z,88.09
2022-11-12T01:50:20.738Z,88.93
2022-11-12T01:53:09.205Z,88.38
2022-11-12T01:55:56.032Z,87.46
2022-11-12T01:58:42.421Z,87.19
2022-11-12T02:01:28.065Z,87.37
2022-11-12T02:04:14.096Z,87.07
2022-11-12T02:07:00.659Z,86.62
2022-11-12T02:09:46.884Z,86.62
2022-11-12T02:12:52.532Z,86.39
2022-11-12T02:15:39.047Z,86.55
2022-11-12T02:18:25.019Z,86.17
2022-11-12T02:21:10.963Z,86.41
2022-11-12T02:23:59.377Z,88.01
2022-11-12T02:26:47.992Z,87.20
2022-11-12T02:29:34.362Z,86.57
2022-11-12T02:32:19.914Z,85.96
2022-11-12T02:35:05.981Z,87.56
2022-11-12T02:37:51.607Z,88.38
2022-11-12T02:40:37.646Z,87.81
2022-11-12T02:44:03.741Z,88.72
2022-11-12T02:46:57.175Z,89.91
2022-11-12T02:49:44.706Z,90.25
2022-11-12T02:52:30.488Z,90.08
2022-11-12T02:55:16.206Z,89.00
2022-11-12T02:58:02.065Z,91.17
2022-11-12T03:00:47.647Z,91.42
2022-11-12T03:03:33.862Z,91.44
2022-11-12T03:06:20.221Z,92.12
2022-11-12T03:09:05.914Z,92.03
2022-11-12T03:11:51.634Z,92.50
2022-11-12T03:14:37.360Z,91.44
2022-11-12T03:17:23.494Z,91.85
2022-11-12T03:20:10.563Z,91.60
2022-11-12T03:22:59.973Z,91.21
2022-11-12T03:25:46.038Z,91.81
2022-11-12T03:28:32.428Z,91.69
2022-11-12T03:31:18.284Z,92.53
2022-11-12T03:34:04.107Z,94.00
2022-11-12T03:36:49.845Z,92.02
2022-11-12T03:39:36.558Z,91.39
2022-11-12T03:42:22.556Z,91.82
2022-11-12T03:45:08.418Z,91.49
2022-11-12T03:47:58.195Z,91.64
2022-11-12T03:50:44.076Z,91.87
2022-11-12T03:53:30.161Z,90.30
2022-11-12T03:56:16.227Z,89.90
2022-11-12T03:59:01.961Z,90.17
2022-11-12T04:01:48.265Z,92.08
2022-11-12T04:05:14.597Z,91.30
2022-11-12T04:08:21.213Z,91.46
2022-11-12T04:11:12.929Z,91.04
2022-11-12T04:13:58.916Z,91.57
2022-11-12T04:17:03.439Z,91.22
2022-11-12T04:20:07.636Z,92.50
2022-11-12T04:22:53.430Z,91.18
2022-11-12T04:25:58.369Z,91.26
2022-11-12T04:29:04.180Z,92.51
2022-11-12T04:31:50.376Z,93.84
2022-11-12T04:34:36.306Z,94.05
2022-11-12T04:37:23.884Z,92.70
2022-11-12T04:40:45.157Z,91.99
2022-11-12T04:43:52.643Z,91.25
2022-11-12T04:46:38.431Z,92.08
2022-11-12T04:49:28.421Z,91.76
2022-11-12T04:52:14.520Z,91.87
2022-11-12T04:55:00.641Z,92.68
2022-11-12T04:57:46.408Z,92.89
2022-11-12T05:00:32.381Z,93.18
2022-11-12T05:03:18.687Z,93.42
2022-11-12T05:06:29.109Z,92.64
2022-11-12T05:09:15.171Z,93.33
2022-11-12T05:12:01.263Z,94.05
2022-11-12T05:14:46.928Z,95.25
2022-11-12T05:17:32.489Z,95.78
2022-11-12T05:20:18.590Z,94.23
2022-11-12T05:23:07.339Z,94.63
2022-11-12T05:25:53.696Z,94.54
2022-11-12T05:28:39.385Z,93.97
2022-11-12T05:31:25.195Z,92.50
2022-11-12T05:34:11.324Z,93.39
2022-11-12T05:36:57.388Z,92.87
2022-11-12T05:39:43.629Z,93.93
2022-11-12T05:42:29.387Z,94.20
2022-11-12T05:45:15.396Z,94.57
2022-11-12T05:48:01.353Z,94.12
2022-11-12T05:51:12.995Z,92.74
2022-11-12T05:53:56.106Z,92.09
2022-11-12T05:56:41.973Z,92.52
2022-11-12T05:59:27.879Z,92.18
2022-11-12T06:02:13.749Z,93.47
2022-11-12T06:04:59.644Z,92.70
2022-11-12T06:07:45.366Z,91.12
2022-11-12T06:10:32.277Z,92.04
2022-11-12T06:13:18.808Z,91.12
2022-11-12T06:16:05.556Z,92.67
2022-11-12T06:18:51.518Z,92.65
2022-11-12T06:21:37.816Z,91.79
2022-11-12T06:24:24.276Z,90.85
2022-11-12T06:27:10.341Z,91.41
2022-11-12T06:29:55.844Z,90.86
2022-11-12T06:32:41.582Z,91.34
2022-11-12T06:35:27.409Z,91.80
2022-11-12T06:38:13.465Z,91.33
2022-11-12T06:40:59.846Z,91.98
2022-11-12T06:43:46.116Z,91.98
2022-11-12T06:46:31.770Z,91.21
2022-11-12T06:49:17.379Z,91.87
2022-11-12T06:52:03.710Z,92.57
2022-11-12T06:54:49.521Z,92.22
2022-11-12T06:57:36.013Z,91.38
2022-11-12T07:00:23.494Z,91.36
2022-11-12T07:03:10.125Z,90.52
2022-11-12T07:05:55.969Z,90.41
2022-11-12T07:08:42.134Z,89.62
2022-11-12T07:11:27.971Z,88.99
2022-11-12T07:14:13.802Z,89.32
2022-11-12T07:16:59.356Z,90.13
2022-11-12T07:19:45.333Z,90.95
2022-11-12T07:22:33.385Z,89.91
2022-11-12T07:25:19.323Z,90.45
2022-11-12T07:28:05.075Z,89.78
2022-11-12T07:31:04.616Z,89.55
2022-11-12T07:33:53.060Z,89.77
2022-11-12T07:36:38.978Z,88.52
2022-11-12T07:39:24.772Z,89.12
2022-11-12T07:42:10.556Z,88.59
2022-11-12T07:44:56.573Z,88.70
2022-11-12T07:47:42.630Z,89.36
2022-11-12T07:50:28.594Z,89.63
2022-11-12T07:53:14.382Z,88.96
2022-11-12T07:56:01.681Z,89.38
2022-11-12T07:58:48.256Z,89.32
2022-11-12T08:01:34.684Z,88.46
2022-11-12T08:04:20.700Z,88.31
2022-11-12T08:07:06.801Z,88.14
2022-11-12T08:09:53.231Z,87.98
2022-11-12T08:12:38.985Z,87.94
2022-11-12T08:15:25.015Z,87.93
2022-11-12T08:18:10.586Z,88.79
2022-11-12T08:21:04.994Z,89.00
2022-11-12T08:23:50.949Z,86.93
2022-11-12T08:26:37.067Z,87.63
2022-11-12T08:29:25.480Z,87.13
2022-11-12T08:32:11.645Z,87.38
2022-11-12T08:34:57.433Z,87.85
2022-11-12T08:37:43.188Z,88.41
2022-11-12T08:40:30.989Z,87.85
2022-11-12T08:43:17.499Z,85.83
2022-11-12T08:46:04.103Z,86.70
2022-11-12T08:49:35.611Z,85.83
2022-11-12T08:56:42.397Z,84.01
2022-11-12T09:00:38.622Z,83.39
2022-11-12T09:39:07.115Z,84.60
2022-11-12T09:48:17.890Z,83.66
2022-11-12T09:52:56.212Z,84.18
2022-11-12T09:59:13.437Z,82.55
2022-11-12T10:02:22.842Z,84.63
2022-11-12T10:05:27.313Z,84.57
2022-11-12T10:08:36.376Z,83.15
2022-11-12T10:11:28.336Z,80.84
2022-11-12T10:14:31.854Z,83.40
2022-11-12T10:17:35.556Z,80.54
2022-11-12T10:20:26.166Z,80.59
2022-11-12T10:23:22.834Z,81.67
2022-11-12T10:26:15.006Z,81.21
2022-11-12T10:29:14.596Z,81.37
2022-11-12T10:32:03.764Z,79.50
2022-11-12T10:34:49.908Z,80.40
2022-11-12T10:37:42.762Z,82.02
2022-11-12T10:40:28.630Z,80.76
2022-11-12T10:43:17.109Z,80.61
2022-11-12T10:46:20.254Z,81.41
2022-11-12T10:49:15.301Z,79.22
2022-11-12T10:52:01.350Z,78.82
2022-11-12T10:54:52.370Z,78.73
2022-11-12T10:57:41.091Z,78.66
2022-11-12T11:00:26.832Z,78.81
2022-11-12T11:03:19.621Z,78.88
2022-11-12T11:06:26.177Z,78.80
2022-11-12T11:09:11.855Z,79.31
2022-11-12T11:11:58.218Z,78.25
2022-11-12T11:14:44.686Z,78.79
2022-11-12T11:17:30.589Z,78.37
2022-11-12T11:20:23.023Z,78.28
2022-11-12T11:23:17.385Z,78.09
2022-11-12T11:26:14.393Z,77.58
2022-11-12T11:29:44.854Z,77.47
2022-11-12T11:32:37.764Z,77.24
2022-11-12T11:35:57.628Z,78.45
2022-11-12T11:39:24.826Z,76.90
2022-11-12T11:42:16.257Z,76.34
2022-11-12T11:45:28.888Z,76.52
2022-11-12T11:48:32.881Z,75.56
2022-11-12T11:51:40.434Z,75.17
2022-11-12T11:54:44.491Z,74.58
2022-11-12T11:57:52.664Z,74.44
2022-11-12T12:00:46.618Z,73.48
2022-11-12T12:03:54.447Z,73.03
2022-11-12T12:07:02.484Z,72.30
2022-11-12T12:10:09.294Z,71.36
2022-11-12T12:13:07.561Z,70.16
2022-11-12T12:16:24.294Z,70.91
2022-11-12T12:19:22.165Z,71.38
2022-11-12T12:22:15.637Z,71.01
2022-11-12T12:25:11.513Z,70.82
2022-11-12T12:28:02.869Z,70.64
2022-11-12T12:30:52.462Z,70.18
2022-11-12T12:33:51.625Z,70.42
2022-11-12T12:36:39.826Z,70.40
2022-11-12T12:39:27.662Z,72.21
2022-11-12T12:42:28.085Z,63.70
2022-11-12T12:45:35.939Z,64.02
2022-11-12T12:48:27.982Z,65.71
2022-11-12T12:51:13.979Z,66.89
2022-11-12T12:54:00.165Z,67.52
2022-11-12T12:56:47.357Z,67.66
2022-11-12T12:59:33.552Z,68.53
2022-11-12T13:02:22.096Z,69.39
2022-11-12T13:05:25.131Z,68.72
2022-11-12T13:08:13.855Z,69.46
2022-11-12T13:10:59.817Z,69.09
2022-11-12T13:13:45.700Z,68.90
2022-11-12T13:16:51.084Z,70.03
2022-11-12T13:19:44.529Z,69.42
2022-11-12T13:22:47.455Z,69.11
2022-11-12T13:25:33.284Z,68.86
2022-11-12T13:28:19.226Z,68.78
2022-11-12T13:31:25.762Z,68.97
2022-11-12T13:34:33.068Z,68.69
2022-11-12T13:37:20.621Z,68.68
2022-11-12T13:40:16.773Z,68.71
2022-11-12T13:43:31.218Z,68.69
2022-11-12T13:46:35.007Z,69.28
2022-11-12T13:49:21.174Z,69.03
2022-11-12T13:52:07.585Z,68.45
2022-11-12T13:55:05.854Z,69.30
2022-11-12T13:57:55.595Z,69.34
2022-11-12T14:00:51.931Z,69.29
2022-11-12T14:03:48.852Z,68.80
2022-11-12T14:06:34.637Z,68.52
2022-11-12T14:09:50.987Z,68.53
2022-11-12T14:12:52.156Z,68.28
2022-11-12T14:16:02.585Z,68.39
2022-11-12T14:19:24.239Z,67.78
2022-11-12T14:22:20.644Z,68.61
2022-11-12T14:25:25.086Z,69.17
2022-11-12T14:28:33.941Z,69.27
2022-11-12T14:31:24.257Z,69.35
2022-11-12T14:34:20.647Z,69.43
2022-11-12T14:37:07.107Z,69.34
2022-11-12T14:39:52.995Z,69.60
2022-11-12T14:42:39.960Z,69.35
2022-11-12T14:45:26.739Z,68.86
2022-11-12T14:48:15.018Z,68.85
2022-11-12T14:51:05.785Z,68.52
2022-11-12T14:54:05.092Z,68.55
2022-11-12T14:56:51.156Z,68.44
2022-11-12T14:59:37.199Z,68.46
2022-11-12T15:02:37.630Z,68.52
2022-11-12T15:05:32.918Z,68.62
2022-11-12T15:08:32.158Z,68.72
2022-11-12T15:11:22.864Z,68.54
2022-11-12T15:14:22.668Z,68.33
2022-11-12T15:17:24.102Z,68.30
2022-11-12T15:20:15.525Z,68.76
2022-11-12T15:23:01.271Z,68.48
2022-11-12T15:25:57.838Z,68.51
2022-11-12T15:28:59.006Z,69.08
2022-11-12T15:31:56.981Z,69.63
2022-11-12T15:34:47.378Z,70.17
2022-11-12T15:37:40.585Z,69.48
2022-11-12T15:40:26.667Z,69.82
2022-11-12T15:43:22.397Z,70.12
2022-11-12T15:46:12.273Z,70.15
2022-11-12T15:48:58.345Z,70.32
2022-11-12T15:51:44.288Z,70.03
2022-11-12T15:54:38.179Z,70.21
2022-11-12T15:57:29.044Z,69.93
2022-11-12T16:00:16.059Z,69.67
2022-11-12T16:03:18.193Z,69.87
2022-11-12T16:06:08.956Z,70.05
2022-11-12T16:08:55.385Z,70.35
2022-11-12T16:11:41.294Z,70.72
2022-11-12T16:14:27.367Z,70.98
2022-11-12T16:17:15.613Z,71.04
2022-11-12T16:20:01.861Z,71.51
2022-11-12T16:22:51.632Z,71.38
2022-11-12T16:25:38.402Z,72.00
2022-11-12T16:28:24.473Z,72.06
2022-11-12T16:31:10.252Z,72.41
2022-11-12T16:33:55.944Z,72.09
2022-11-12T16:36:41.521Z,72.34
2022-11-12T16:39:27.370Z,72.27
2022-11-12T16:42:13.290Z,72.55
2022-11-12T16:44:59.003Z,72.80
2022-11-12T16:47:53.950Z,72.73
2022-11-12T16:50:40.234Z,73.45
2022-11-12T16:53:26.290Z,73.50
2022-11-12T16:56:22.528Z,73.66
2022-11-12T16:59:11.384Z,73.56
2022-11-12T17:01:57.134Z,73.59
2022-11-12T17:04:42.997Z,73.53
2022-11-12T17:07:28.925Z,73.82
2022-11-12T17:10:15.027Z,74.08
2022-11-12T17:13:00.846Z,75.01
2022-11-12T17:15:46.968Z,74.81
2022-11-12T17:18:32.686Z,75.33
2022-11-12T17:21:19.034Z,75.08
2022-11-12T17:24:04.988Z,74.88
2022-11-12T17:26:50.842Z,75.27
2022-11-12T17:29:37.061Z,75.34
2022-11-12T17:32:23.738Z,75.46
2022-11-12T17:35:09.683Z,75.74
2022-11-12T17:37:58.181Z,75.80
2022-11-12T17:40:44.171Z,76.09
2022-11-12T17:43:30.309Z,76.36
2022-11-12T17:46:16.433Z,76.49
2022-11-12T17:49:02.549Z,76.18
2022-11-12T17:51:49.666Z,76.60
2022-11-12T17:54:35.444Z,76.67
2022-11-12T17:57:20.973Z,76.71
2022-11-12T18:00:07.859Z,77.60
2022-11-12T18:02:55.743Z,78.27
2022-11-12T18:05:41.700Z,78.22
2022-11-12T18:08:27.662Z,78.85
2022-11-12T18:11:15.086Z,79.19
2022-11-12T18:14:06.504Z,79.85
2022-11-12T18:16:52.142Z,80.00
2022-11-12T18:19:37.986Z,80.21
2022-11-12T18:22:24.270Z,80.45
2022-11-12T18:25:10.238Z,80.27
2022-11-12T18:27:56.173Z,80.19
2022-11-12T18:30:41.800Z,80.55
2022-11-12T18:33:27.943Z,81.22
2022-11-12T18:36:18.879Z,80.91
2022-11-12T18:39:04.845Z,80.42
2022-11-12T18:41:51.380Z,80.62
2022-11-12T18:44:37.265Z,80.41
2022-11-12T18:47:23.052Z,80.92
2022-11-12T18:50:09.331Z,80.96
2022-11-12T18:52:55.987Z,81.33
2022-11-12T18:55:41.640Z,81.67
2022-11-12T18:58:33.592Z,81.90
2022-11-12T19:01:22.869Z,81.85
2022-11-12T19:04:10.607Z,82.08
2022-11-12T19:06:56.896Z,82.32
2022-11-12T19:09:42.701Z,81.83
2022-11-12T19:12:28.902Z,82.10
2022-11-12T19:15:14.875Z,82.77
2022-11-12T19:18:01.286Z,83.18
2022-11-12T19:20:48.328Z,83.38
2022-11-12T19:23:34.018Z,83.43
2022-11-12T19:26:20.282Z,83.55
2022-11-12T19:29:06.000Z,84.11
2022-11-12T19:31:51.698Z,84.31
2022-11-12T19:34:37.732Z,84.81
2022-11-12T19:37:39.087Z,84.74
2022-11-12T19:40:24.937Z,84.84
2022-11-12T19:43:11.222Z,85.31
2022-11-12T19:45:56.991Z,85.70
2022-11-12T19:48:43.178Z,85.57
2022-11-12T19:51:30.954Z,85.53
2022-11-12T19:54:16.760Z,85.61
2022-11-12T19:57:02.514Z,85.62
2022-11-12T19:59:48.580Z,85.96
2022-11-12T20:02:35.296Z,86.17
2022-11-12T20:05:21.377Z,86.63
2022-11-12T20:08:07.522Z,86.10
2022-11-12T20:10:53.306Z,86.71
2022-11-12T20:13:39.513Z,85.89
2022-11-12T20:16:25.945Z,85.75
2022-11-12T20:19:12.019Z,85.44
2022-11-12T20:21:57.858Z,85.69
2022-11-12T20:24:44.104Z,85.82
2022-11-12T20:27:30.065Z,85.50
2022-11-12T20:30:16.033Z,85.36
2022-11-12T20:33:01.860Z,85.56
2022-11-12T20:35:47.737Z,86.06
2022-11-12T20:38:36.651Z,86.11
2022-11-12T20:41:24.537Z,86.53
2022-11-12T20:44:10.305Z,87.22
2022-11-12T20:46:56.472Z,87.71
2022-11-12T20:49:42.215Z,87.98
2022-11-12T20:52:27.812Z,88.45
2022-11-12T20:55:13.506Z,88.04
2022-11-12T20:58:00.206Z,87.68
2022-11-12T21:00:46.118Z,86.96
2022-11-12T21:03:32.222Z,87.19
2022-11-12T21:06:20.169Z,87.69
2022-11-12T21:09:06.668Z,87.71
2022-11-12T21:11:53.118Z,87.79
2022-11-12T21:14:39.094Z,88.24
2022-11-12T21:17:25.159Z,88.69
2022-11-12T21:20:11.230Z,88.68
2022-11-12T21:22:57.595Z,88.39
2022-11-12T21:25:43.687Z,87.89
2022-11-12T21:28:29.607Z,87.71
2022-11-12T21:31:20.789Z,87.17
2022-11-12T21:34:07.086Z,86.91
2022-11-12T21:36:53.031Z,86.54
2022-11-12T21:39:38.909Z,86.31
2022-11-12T21:42:25.157Z,85.98
2022-11-12T21:45:11.592Z,85.84
2022-11-12T21:47:57.555Z,85.60
2022-11-12T21:50:43.326Z,85.68
2022-11-12T21:53:29.360Z,86.25
2022-11-12T21:56:17.705Z,86.92
2022-11-12T21:59:04.497Z,87.48
2022-11-12T22:01:50.542Z,87.42
2022-11-12T22:04:36.358Z,87.62
2022-11-12T22:07:22.022Z,87.50
2022-11-12T22:10:07.769Z,87.74
2022-11-12T22:13:24.682Z,87.72
2022-11-12T22:15:59.481Z,87.68
2022-11-12T22:18:47.017Z,87.74
2022-11-12T22:21:39.420Z,88.08
2022-11-12T22:24:25.939Z,88.90
2022-11-12T22:27:11.668Z,89.15
2022-11-12T22:29:57.424Z,89.03
2022-11-12T22:32:43.286Z,89.45
2022-11-12T22:35:29.136Z,89.91
2022-11-12T22:38:14.877Z,89.55
2022-11-12T22:41:02.245Z,89.27
2022-11-12T22:43:49.506Z,89.30
2022-11-12T22:46:35.557Z,88.83
2022-11-12T22:49:21.517Z,88.91
2022-11-12T22:52:07.303Z,89.12
2022-11-12T22:54:53.550Z,89.08
2022-11-12T22:57:39.237Z,89.64
2022-11-12T23:00:30.951Z,88.86
2022-11-12T23:03:17.005Z,88.99
2022-11-12T23:06:05.624Z,89.88
2022-11-12T23:08:53.792Z,89.37
2022-11-12T23:11:39.736Z,88.46
2022-11-12T23:14:26.991Z,88.37
2022-11-12T23:17:13.135Z,88.73
2022-11-12T23:23:23.025Z,89.70
2022-11-12T23:26:12.372Z,90.07
2022-11-12T23:28:58.389Z,90.50
2022-11-12T23:31:44.212Z,90.28
2022-11-12T23:34:29.800Z,90.07
2022-11-12T23:37:15.638Z,89.94
2022-11-12T23:40:01.300Z,89.47
2022-11-12T23:42:47.558Z,90.21
2022-11-12T23:45:38.181Z,90.65
2022-11-12T23:48:24.886Z,89.98
2022-11-12T23:51:13.596Z,89.57
2022-11-12T23:53:59.727Z,89.94
2022-11-12T23:56:45.533Z,89.76
2022-11-12T23:59:31.096Z,90.32
